Time,TemperatureF,DewpointF,PressureIn,WindDirection,WindDirectionDegrees,WindSpeedMPH,WindSpeedGustMPH,Humidity,HourlyPrecipIn,Conditions,Clouds,dailyrainin,SoftwareType,DateUTC
2013-09-16 00:04:00,59.2,58.6,30.13,East,90,0.0,-999.0,98,-99.99,,,0.00,Acu-Link.com,2013-09-16 05:04:00,
2013-09-16 00:19:00,59.2,58.6,30.14,ENE,67,2.2,-999.0,98,-99.99,,,0.00,Acu-Link.com,2013-09-16 05:19:00,
2013-09-16 00:34:00,59.0,58.4,30.13,ESE,112,2.7,-999.0,98,-99.99,,,0.00,Acu-Link.com,2013-09-16 05:34:00,
2013-09-16 00:50:00,59.0,58.4,30.14,ESE,112,1.1,-999.0,98,-99.99,,,0.00,Acu-Link.com,2013-09-16 05:50:00,
2013-09-16 01:05:00,59.0,58.7,30.14,ESE,112,5.8,-999.0,99,-99.99,,,0.00,Acu-Link.com,2013-09-16 06:05:00,
2013-09-16 01:20:00,59.2,58.1,30.14,NE,45,3.2,-999.0,96,-99.99,,,0.00,Acu-Link.com,2013-09-16 06:20:00,
2013-09-16 01:35:00,59.0,57.6,30.14,ESE,112,3.7,-999.0,95,-99.99,,,0.00,Acu-Link.com,2013-09-16 06:35:00,
2013-09-16 01:50:00,58.8,57.1,30.15,ESE,112,4.7,-999.0,94,-99.99,,,0.00,Acu-Link.com,2013-09-16 06:50:00,
2013-09-16 02:05:00,58.6,56.6,30.14,NNE,22,3.2,-999.0,93,-99.99,,,0.00,Acu-Link.com,2013-09-16 07:05:00,
2013-09-16 02:20:00,58.3,56.6,30.13,NE,45,5.3,-999.0,94,-99.99,,,0.00,Acu-Link.com,2013-09-16 07:20:00,
2013-09-16 02:36:00,58.1,56.4,30.14,East,90,5.8,-999.0,94,-99.99,,,0.00,Acu-Link.com,2013-09-16 07:36:00,
2013-09-16 02:51:00,58.1,56.4,30.13,ENE,67,4.2,-999.0,94,-99.99,,,0.00,Acu-Link.com,2013-09-16 07:51:00,
2013-09-16 03:07:00,58.1,56.4,30.13,NNE,22,7.3,-999.0,94,-99.99,,,0.00,Acu-Link.com,2013-09-16 08:07:00,
2013-09-16 03:22:00,58.1,56.4,30.13,NNE,22,3.7,-999.0,94,-99.99,,,0.00,Acu-Link.com,2013-09-16 08:22:00,
2013-09-16 03:37:00,58.1,56.4,30.13,NE,45,7.3,-999.0,94,-99.99,,,0.00,Acu-Link.com,2013-09-16 08:37:00,
2013-09-16 03:52:00,58.1,56.4,30.14,East,90,6.3,-999.0,94,-99.99,,,0.00,Acu-Link.com,2013-09-16 08:52:00,
2013-09-16 04:07:00,57.6,56.2,30.14,NE,45,4.7,-999.0,95,-99.99,,,0.00,Acu-Link.com,2013-09-16 09:07:00,
2013-09-16 04:22:00,57.0,55.9,30.15,NE,45,2.7,-999.0,96,-99.99,,,0.00,Acu-Link.com,2013-09-16 09:22:00,
2013-09-16 04:37:00,56.3,55.5,30.15,East,90,3.7,-999.0,97,-99.99,,,0.00,Acu-Link.com,2013-09-16 09:37:00,
2013-09-16 04:53:00,55.9,55.6,30.16,NE,45,4.2,-999.0,99,-99.99,,,0.00,Acu-Link.com,2013-09-16 09:53:00,
2013-09-16 05:08:00,55.8,55.5,30.16,NE,45,3.7,-999.0,99,-99.99,,,0.00,Acu-Link.com,2013-09-16 10:08:00,
2013-09-16 05:23:00,55.4,55.1,30.16,ESE,112,3.2,-999.0,99,-99.99,,,0.00,Acu-Link.com,2013-09-16 10:23:00,
2013-09-16 05:38:00,55.2,54.9,30.16,ENE,67,3.7,-999.0,99,-99.99,,,0.00,Acu-Link.com,2013-09-16 10:38:00,
2013-09-16 05:53:00,55.2,54.9,30.17,NNE,22,4.7,-999.0,99,-99.99,,,0.00,Acu-Link.com,2013-09-16 10:53:00,
2013-09-16 06:08:00,55.0,54.7,30.16,East,90,5.8,-999.0,99,-99.99,,,0.00,Acu-Link.com,2013-09-16 11:08:00,
2013-09-16 06:24:00,54.5,54.2,30.17,NE,45,4.2,-999.0,99,-99.99,,,0.00,Acu-Link.com,2013-09-16 11:24:00,
2013-09-16 06:39:00,54.1,53.8,30.17,ESE,112,5.8,-999.0,99,-99.99,,,0.00,Acu-Link.com,2013-09-16 11:39:00,
2013-09-16 06:54:00,54.1,53.8,30.18,ENE,67,4.7,-999.0,99,-99.99,,,0.00,Acu-Link.com,2013-09-16 11:54:00,
2013-09-16 07:09:00,54.1,53.8,30.18,NNE,22,3.7,-999.0,99,-99.99,,,0.00,Acu-Link.com,2013-09-16 12:09:00,
2013-09-16 07:24:00,54.0,53.7,30.19,NE,45,2.7,-999.0,99,-99.99,,,0.00,Acu-Link.com,2013-09-16 12:24:00,
2013-09-16 07:40:00,54.3,54.0,30.20,ENE,67,3.7,-999.0,99,-99.99,,,0.00,Acu-Link.com,2013-09-16 12:40:00,
2013-09-16 07:55:00,54.9,54.6,30.20,NNE,22,2.2,-999.0,99,-99.99,,,0.00,Acu-Link.com,2013-09-16 12:55:00,
2013-09-16 08:10:00,55.2,54.9,30.20,East,90,5.3,-999.0,99,-99.99,,,0.00,Acu-Link.com,2013-09-16 13:10:00,
2013-09-16 08:26:00,55.6,55.0,30.21,ESE,112,6.8,-999.0,98,-99.99,,,0.00,Acu-Link.com,2013-09-16 13:26:00,
2013-09-16 08:41:00,56.1,55.3,30.21,NE,45,5.8,-999.0,97,-99.99,,,0.00,Acu-Link.com,2013-09-16 13:41:00,
2013-09-16 08:56:00,56.8,55.4,30.21,NE,45,8.9,-999.0,95,-99.99,,,0.00,Acu-Link.com,2013-09-16 13:56:00,
2013-09-16 09:11:00,57.4,56.0,30.22,East,90,3.7,-999.0,95,-99.99,,,0.00,Acu-Link.com,2013-09-16 14:11:00,
2013-09-16 09:26:00,57.6,55.9,30.22,ENE,67,5.8,-999.0,94,-99.99,,,0.00,Acu-Link.com,2013-09-16 14:26:00,
2013-09-16 09:42:00,57.9,56.2,30.24,East,90,7.3,-999.0,94,-99.99,,,0.00,Acu-Link.com,2013-09-16 14:42:00,
2013-09-16 09:57:00,58.6,56.6,30.24,ENE,67,4.2,-999.0,93,-99.99,,,0.00,Acu-Link.com,2013-09-16 14:57:00,
2013-09-16 10:12:00,59.0,56.4,30.25,ESE,112,6.8,-999.0,91,-99.99,,,0.00,Acu-Link.com,2013-09-16 15:12:00,
2013-09-16 10:27:00,59.0,56.7,30.25,ESE,112,5.8,-999.0,92,-99.99,,,0.00,Acu-Link.com,2013-09-16 15:27:00,
2013-09-16 10:42:00,59.5,56.9,30.25,ENE,67,9.4,-999.0,91,-99.99,,,0.00,Acu-Link.com,2013-09-16 15:42:00,
2013-09-16 10:58:00,59.9,57.0,30.25,East,90,4.7,-999.0,90,-99.99,,,0.00,Acu-Link.com,2013-09-16 15:58:00,
2013-09-16 11:13:00,60.8,57.2,30.24,East,90,5.8,-999.0,88,-99.99,,,0.00,Acu-Link.com,2013-09-16 16:13:00,
2013-09-16 11:31:00,61.0,56.5,30.24,NE,45,6.3,-999.0,85,-99.99,,,0.00,Acu-Link.com,2013-09-16 16:31:00,
2013-09-16 11:46:00,61.2,56.7,30.24,ESE,112,7.8,-999.0,85,-99.99,,,0.00,Acu-Link.com,2013-09-16 16:46:00,
2013-09-16 12:01:00,62.2,57.3,30.25,South,180,9.4,-999.0,84,-99.99,,,0.00,Acu-Link.com,2013-09-16 17:01:00,
2013-09-16 12:16:00,62.4,56.8,30.24,East,90,7.8,-999.0,82,-99.99,,,0.00,Acu-Link.com,2013-09-16 17:16:00,
2013-09-16 12:31:00,62.2,57.0,30.24,NE,45,4.2,-999.0,83,-99.99,,,0.00,Acu-Link.com,2013-09-16 17:31:00,
2013-09-16 12:47:00,61.7,56.5,30.24,East,90,4.7,-999.0,83,-99.99,,,0.00,Acu-Link.com,2013-09-16 17:47:00,
2013-09-16 13:02:00,62.2,57.0,30.23,ESE,112,9.9,-999.0,83,-99.99,,,0.00,Acu-Link.com,2013-09-16 18:02:00,
2013-09-16 13:17:00,62.2,56.6,30.23,South,180,6.3,-999.0,82,-99.99,,,0.00,Acu-Link.com,2013-09-16 18:17:00,
2013-09-16 13:32:00,61.7,56.5,30.23,ESE,112,6.3,-999.0,83,-99.99,,,0.00,Acu-Link.com,2013-09-16 18:32:00,
2013-09-16 13:47:00,61.7,56.1,30.22,NNE,22,3.7,-999.0,82,-99.99,,,0.00,Acu-Link.com,2013-09-16 18:47:00,
2013-09-16 14:02:00,61.5,56.3,30.22,ESE,112,6.8,-999.0,83,-99.99,,,0.00,Acu-Link.com,2013-09-16 19:02:00,
2013-09-16 14:17:00,61.7,56.5,30.21,ESE,112,7.3,-999.0,83,-99.99,,,0.00,Acu-Link.com,2013-09-16 19:17:00,
2013-09-16 14:33:00,61.9,56.7,30.20,ENE,67,3.7,-999.0,83,-99.99,,,0.00,Acu-Link.com,2013-09-16 19:33:00,
2013-09-16 14:48:00,61.9,56.7,30.20,SSW,202,5.8,-999.0,83,-99.99,,,0.00,Acu-Link.com,2013-09-16 19:48:00,
2013-09-16 15:03:00,61.7,56.5,30.19,ESE,112,5.3,-999.0,83,-99.99,,,0.00,Acu-Link.com,2013-09-16 20:03:00,
2013-09-16 15:18:00,61.5,56.6,30.19,ENE,67,5.3,-999.0,84,-99.99,,,0.00,Acu-Link.com,2013-09-16 20:18:00,
2013-09-16 15:33:00,61.9,56.7,30.19,SE,135,6.8,-999.0,83,-99.99,,,0.00,Acu-Link.com,2013-09-16 20:33:00,
2013-09-16 15:49:00,62.4,56.8,30.17,ESE,112,7.3,-999.0,82,-99.99,,,0.00,Acu-Link.com,2013-09-16 20:49:00,
2013-09-16 16:04:00,63.7,57.4,30.17,East,90,7.8,-999.0,80,-99.99,,,0.00,Acu-Link.com,2013-09-16 21:04:00,
2013-09-16 16:19:00,63.3,57.0,30.17,East,90,5.3,-999.0,80,-99.99,,,0.00,Acu-Link.com,2013-09-16 21:19:00,
2013-09-16 16:34:00,63.5,56.9,30.16,NNE,22,5.3,-999.0,79,-99.99,,,0.00,Acu-Link.com,2013-09-16 21:34:00,
2013-09-16 16:49:00,63.7,56.7,30.15,East,90,4.7,-999.0,78,-99.99,,,0.00,Acu-Link.com,2013-09-16 21:49:00,
2013-09-16 17:04:00,63.7,56.7,30.15,ESE,112,6.8,-999.0,78,-99.99,,,0.00,Acu-Link.com,2013-09-16 22:04:00,
2013-09-16 17:19:00,63.7,56.7,30.14,ESE,112,8.3,-999.0,78,-99.99,,,0.00,Acu-Link.com,2013-09-16 22:19:00,
2013-09-16 17:34:00,63.9,56.2,30.14,ESE,112,6.3,-999.0,76,-99.99,,,0.00,Acu-Link.com,2013-09-16 22:34:00,
2013-09-16 17:50:00,63.3,56.0,30.14,East,90,7.8,-999.0,77,-99.99,,,0.00,Acu-Link.com,2013-09-16 22:50:00,
2013-09-16 18:05:00,63.1,56.1,30.15,ESE,112,3.7,-999.0,78,-99.99,,,0.00,Acu-Link.com,2013-09-16 23:05:00,
2013-09-16 18:20:00,63.1,55.8,30.14,SSW,202,5.3,-999.0,77,-99.99,,,0.00,Acu-Link.com,2013-09-16 23:20:00,
2013-09-16 18:35:00,63.0,56.0,30.14,ESE,112,2.7,-999.0,78,-99.99,,,0.00,Acu-Link.com,2013-09-16 23:35:00,
2013-09-16 18:50:00,62.6,55.6,30.14,NNE,22,3.7,-999.0,78,-99.99,,,0.00,Acu-Link.com,2013-09-16 23:50:00,
2013-09-16 19:06:00,62.4,55.8,30.14,NE,45,4.7,-999.0,79,-99.99,,,0.00,Acu-Link.com,2013-09-17 00:06:00,
2013-09-16 19:21:00,62.2,56.0,30.14,NE,45,3.7,-999.0,80,-99.99,,,0.00,Acu-Link.com,2013-09-17 00:21:00,
2013-09-16 19:36:00,61.9,55.7,30.14,NE,45,3.7,-999.0,80,-99.99,,,0.00,Acu-Link.com,2013-09-17 00:36:00,
2013-09-16 19:51:00,61.9,56.0,30.14,NE,45,1.1,-999.0,81,-99.99,,,0.00,Acu-Link.com,2013-09-17 00:51:00,
2013-09-16 20:07:00,61.7,55.8,30.14,NE,45,2.2,-999.0,81,-99.99,,,0.00,Acu-Link.com,2013-09-17 01:07:00,
2013-09-16 20:22:00,61.7,56.1,30.14,NE,45,3.2,-999.0,82,-99.99,,,0.00,Acu-Link.com,2013-09-17 01:22:00,
2013-09-16 20:37:00,61.5,56.0,30.15,NE,45,3.2,-999.0,82,-99.99,,,0.00,Acu-Link.com,2013-09-17 01:37:00,
2013-09-16 20:52:00,61.3,56.1,30.15,NE,45,2.7,-999.0,83,-99.99,,,0.00,Acu-Link.com,2013-09-17 01:52:00,
2013-09-16 21:07:00,61.3,56.1,30.15,NE,45,3.2,-999.0,83,-99.99,,,0.00,Acu-Link.com,2013-09-17 02:07:00,
2013-09-16 21:23:00,61.3,56.1,30.15,NE,45,3.2,-999.0,83,-99.99,,,0.00,Acu-Link.com,2013-09-17 02:23:00,
2013-09-16 21:38:00,61.3,56.1,30.15,NE,45,2.2,-999.0,83,-99.99,,,0.00,Acu-Link.com,2013-09-17 02:38:00,
2013-09-16 21:53:00,61.2,56.0,30.16,NE,45,3.7,-999.0,83,-99.99,,,0.00,Acu-Link.com,2013-09-17 02:53:00,
2013-09-16 22:08:00,61.2,56.0,30.16,NE,45,3.7,-999.0,83,-99.99,,,0.00,Acu-Link.com,2013-09-17 03:08:00,
2013-09-16 22:24:00,61.2,56.3,30.16,ENE,67,3.2,-999.0,84,-99.99,,,0.00,Acu-Link.com,2013-09-17 03:24:00,
2013-09-16 22:39:00,61.0,56.1,30.16,SSE,157,2.2,-999.0,84,-99.99,,,0.00,Acu-Link.com,2013-09-17 03:39:00,
2013-09-16 22:54:00,60.8,56.3,30.16,East,90,3.2,-999.0,85,-99.99,,,0.00,Acu-Link.com,2013-09-17 03:54:00,
2013-09-16 23:09:00,60.6,56.4,30.15,SSW,202,2.7,-999.0,86,-99.99,,,0.00,Acu-Link.com,2013-09-17 04:09:00,
2013-09-16 23:24:00,60.3,56.7,30.15,SW,225,2.2,-999.0,88,-99.99,,,0.00,Acu-Link.com,2013-09-17 04:24:00,
2013-09-16 23:40:00,59.7,56.5,30.15,East,90,1.7,-999.0,89,-99.99,,,0.00,Acu-Link.com,2013-09-17 04:40:00,
2013-09-16 23:55:00,59.7,56.8,30.15,NE,45,4.7,-999.0,90,-99.99,,,0.00,Acu-Link.com,2013-09-17 04:55:00,